Sunday, November 18, 2018, 3:14 PM GMT
Back to Local

CYCX, Gagetown Can-Mil

Location: , , Canada Lat: 45.833
Local Time: 3:14 PM GMT (15:14 GMT) Lon: -66.433
Time Zone: GMT Elev: 167 ft

Show me the last for .
Show Coded

Time T Td Feel RH Dir Speed Gust Alt SLP Vis Weather Sky Remarks
2018-11-18 15:00 23 16 14 73 290° 8 - 30.33 30.34 15 FEW030 None
2018-11-18 14:00 21 16 - 79 - Calm - 30.32 30.33 15 CLR None
2018-11-18 13:00 19 16 - 85 - Calm - 30.30 30.31 15 CLR None
2018-11-18 12:00 19 16 - 85 - Calm - 30.27 30.28 15 CLR None
2018-11-18 11:00 19 16 - 85 - Calm - 30.24 30.25 15 CLR None
2018-11-18 10:00 19 18 - 92 - Calm - 30.22 30.23 15 CLR None
2018-11-18 09:00 21 19 - 92 - Calm - 30.18 30.19 15 FEW080 None
2018-11-18 08:00 23 19 18 85 260° 3 - 30.17 30.17 15 FEW050 None
2018-11-18 07:00 25 19 16 79 290° 8 - 30.14 30.15 15 FEW050 None
2018-11-18 06:00 27 21 18 79 290° 8 - 30.10 30.11 15 FEW050 None
2018-11-18 05:00 28 23 19 79 270° 10 - 30.08 30.09 15 SCT050 None
2018-11-18 04:00 28 23 21 79 240° 7 - 30.06 30.06 15 FEW050 None
2018-11-18 03:00 27 23 18 86 240° 8 - 30.04 30.05 15 FEW040 None
2018-11-18 02:00 28 25 20 86 230° 9 - 30.02 30.03 15 FEW030 None
2018-11-18 01:00 30 25 21 80 220° 10 - 30.01 30.02 15 FEW030 None
2018-11-18 00:00 30 25 23 80 240° 8 - 29.99 30.00 15 FEW030 None
2018-11-17 23:00 32 25 23 74 270° 13 - 29.97 29.97 15 BKN030 None
2018-11-17 22:00 32 25 20 74 280° 15 21 29.94 29.95 15 OVC030 None
2018-11-17 21:00 32 25 24 74 270° 10 - 29.91 29.92 15 BKN030 None
2018-11-17 20:00 32 27 24 80 270° 10 - 29.91 29.91 15 BKN028 None
2018-11-17 19:00 32 25 26 74 260° 6 - 29.88 29.89 15 OVC026 None
2018-11-17 18:00 30 23 21 74 270° 10 - 29.87 29.88 15 BKN024 None
2018-11-17 17:00 28 23 18 79 270° 13 - 29.87 29.88 15 OVC020 None
2018-11-17 16:00 27 21 14 79 260° 16 - 29.88 29.88 15 BKN020 None

Support USWX by starting your Amazon purchase here.